createdAt,value
2018-07-17T00:01:17.717Z,6.30
2018-07-17T00:03:46.640Z,6.40
2018-07-17T00:06:15.480Z,5.73
2018-07-17T00:08:44.339Z,5.73
2018-07-17T00:11:14.340Z,5.83
2018-07-17T00:13:43.457Z,5.30
2018-07-17T00:16:12.365Z,5.50
2018-07-17T00:18:41.264Z,5.50
2018-07-17T00:21:10.704Z,4.43
2018-07-17T00:23:39.637Z,5.40
2018-07-17T00:26:08.118Z,4.77
2018-07-17T00:28:38.982Z,4.77
2018-07-17T00:31:08.008Z,5.93
2018-07-17T00:33:36.894Z,5.27
2018-07-17T00:36:05.773Z,6.13
2018-07-17T00:38:34.632Z,5.70
2018-07-17T00:41:03.547Z,6.30
2018-07-17T00:43:32.406Z,4.43
2018-07-17T00:46:01.328Z,6.20
2018-07-17T00:48:30.220Z,4.63
2018-07-17T00:50:59.084Z,8.53
2018-07-17T00:53:27.596Z,5.07
2018-07-17T00:55:56.500Z,4.67
2018-07-17T00:58:25.340Z,7.03
2018-07-17T01:00:52.971Z,4.90
2018-07-17T01:03:27.200Z,4.60
2018-07-17T01:06:01.279Z,4.63
2018-07-17T01:08:35.331Z,5.50
2018-07-17T01:11:09.449Z,5.27
2018-07-17T01:14:00.342Z,5.70
2018-07-17T01:16:29.403Z,5.80
2018-07-17T01:18:58.240Z,4.97
2018-07-17T01:21:26.791Z,6.03
2018-07-17T01:23:55.693Z,5.57
2018-07-17T01:26:24.580Z,6.70
2018-07-17T01:28:53.410Z,4.93
2018-07-17T01:31:22.364Z,5.00
2018-07-17T01:33:51.195Z,4.90
2018-07-17T01:36:20.104Z,5.17
2018-07-17T01:38:49.464Z,5.53
2018-07-17T01:41:18.361Z,5.77
2018-07-17T01:43:46.839Z,5.40
2018-07-17T01:46:15.352Z,4.90
2018-07-17T01:48:44.246Z,5.07
2018-07-17T01:51:13.160Z,5.87
2018-07-17T01:53:42.044Z,5.20
2018-07-17T01:56:10.876Z,4.57
2018-07-17T01:58:39.767Z,4.00
2018-07-17T02:01:08.612Z,5.60
2018-07-17T02:08:37.846Z,5.30
2018-07-17T02:11:06.714Z,4.97
2018-07-17T02:13:35.604Z,7.20
2018-07-17T02:16:04.516Z,4.73
2018-07-17T02:18:33.364Z,4.23
2018-07-17T02:21:02.243Z,4.90
2018-07-17T02:23:31.149Z,6.63
2018-07-17T02:26:00.088Z,4.77
2018-07-17T02:28:28.997Z,4.40
2018-07-17T02:30:57.832Z,6.07
2018-07-17T02:33:26.696Z,6.83
2018-07-17T02:35:55.124Z,4.43
2018-07-17T02:38:24.117Z,5.10
2018-07-17T02:40:52.964Z,5.13
2018-07-17T02:43:21.399Z,4.40
2018-07-17T02:45:50.308Z,4.87
2018-07-17T02:48:19.196Z,4.47
2018-07-17T02:50:50.144Z,4.20
2018-07-17T02:53:19.033Z,4.80
2018-07-17T02:55:47.893Z,4.53
2018-07-17T02:58:16.796Z,4.10
2018-07-17T03:00:45.688Z,5.87
2018-07-17T03:03:14.528Z,5.07
2018-07-17T03:05:43.436Z,4.40
2018-07-17T03:08:12.312Z,7.17
2018-07-17T03:10:41.284Z,6.70
2018-07-17T03:13:09.833Z,6.00
2018-07-17T03:15:38.684Z,5.67
2018-07-17T03:18:07.552Z,4.73
2018-07-17T03:20:36.012Z,4.90
2018-07-17T03:23:04.873Z,4.47
2018-07-17T03:25:33.793Z,5.00
2018-07-17T03:28:02.800Z,5.63
2018-07-17T03:30:31.648Z,5.83
2018-07-17T03:33:00.568Z,5.63
2018-07-17T03:35:29.447Z,4.57
2018-07-17T03:37:58.351Z,5.77
2018-07-17T03:40:27.237Z,4.80
2018-07-17T03:42:56.096Z,5.53
2018-07-17T03:45:25.017Z,5.10
2018-07-17T03:48:05.788Z,6.53
2018-07-17T03:50:50.464Z,8.87
2018-07-17T03:53:19.333Z,8.70
2018-07-17T03:55:48.228Z,6.33
2018-07-17T03:58:17.137Z,6.30
2018-07-17T04:00:46.005Z,6.13
2018-07-17T04:03:14.957Z,4.67
2018-07-17T04:05:43.812Z,5.10
2018-07-17T04:08:14.402Z,7.77
2018-07-17T04:10:43.284Z,5.10
2018-07-17T04:13:12.208Z,4.70
2018-07-17T04:15:41.065Z,5.50
2018-07-17T04:18:10.017Z,5.37
2018-07-17T04:20:38.924Z,5.53
2018-07-17T04:23:07.780Z,6.13
2018-07-17T04:25:36.713Z,7.40
2018-07-17T04:28:05.926Z,9.37
2018-07-17T04:30:34.772Z,8.30
2018-07-17T04:33:03.520Z,6.47
2018-07-17T04:35:32.404Z,8.23
2018-07-17T04:38:01.285Z,10.77
2018-07-17T04:40:30.181Z,5.23
2018-07-17T04:42:59.069Z,7.07
2018-07-17T04:45:27.909Z,6.10
2018-07-17T04:47:56.368Z,5.07
2018-07-17T04:50:24.872Z,4.90
2018-07-17T04:52:53.732Z,5.33
2018-07-17T04:55:22.647Z,11.10
2018-07-17T04:57:51.072Z,6.10
2018-07-17T05:00:20.368Z,6.17
2018-07-17T05:02:49.316Z,7.93
2018-07-17T05:05:18.265Z,8.10
2018-07-17T05:07:47.176Z,6.60
2018-07-17T05:10:16.155Z,7.20
2018-07-17T05:12:45.045Z,6.70
2018-07-17T05:15:13.971Z,6.03
2018-07-17T05:17:42.844Z,8.20
2018-07-17T05:20:11.751Z,8.40
2018-07-17T05:22:40.245Z,7.43
2018-07-17T05:25:09.348Z,6.63
2018-07-17T05:27:38.236Z,9.27
2018-07-17T05:30:07.148Z,6.43
2018-07-17T05:32:36.081Z,8.27
2018-07-17T05:35:05.155Z,7.27
2018-07-17T05:37:34.014Z,5.90
2018-07-17T05:40:03.704Z,5.07
2018-07-17T05:42:32.230Z,5.77
2018-07-17T05:45:01.124Z,10.67
2018-07-17T05:47:30.014Z,8.43
2018-07-17T05:49:58.920Z,10.63
2018-07-17T05:52:27.758Z,7.50
2018-07-17T05:54:56.681Z,13.40
2018-07-17T05:57:25.540Z,9.00
2018-07-17T05:59:54.764Z,9.37
2018-07-17T06:02:23.638Z,7.87
2018-07-17T06:04:52.568Z,10.93
2018-07-17T06:07:21.452Z,10.17
2018-07-17T06:09:50.262Z,7.47
2018-07-17T06:12:19.508Z,8.90
2018-07-17T06:14:48.352Z,7.87
2018-07-17T06:17:17.248Z,9.70
2018-07-17T06:19:46.139Z,13.90
2018-07-17T06:22:15.078Z,8.77
2018-07-17T06:24:43.536Z,9.73
2018-07-17T06:27:12.488Z,9.40
2018-07-17T06:29:41.488Z,17.17
2018-07-17T06:32:10.364Z,12.07
2018-07-17T06:34:39.217Z,6.57
2018-07-17T06:37:08.156Z,9.80
2018-07-17T06:39:37.025Z,13.20
2018-07-17T06:42:06.062Z,11.53
2018-07-17T06:44:34.996Z,7.50
2018-07-17T06:47:03.953Z,7.53
2018-07-17T06:49:32.463Z,7.47
2018-07-17T06:52:01.332Z,8.50
2018-07-17T06:54:29.852Z,17.03
2018-07-17T06:56:58.737Z,28.23
2018-07-17T06:59:27.649Z,16.00
2018-07-17T07:01:56.544Z,9.33
2018-07-17T07:04:25.507Z,10.30
2018-07-17T07:06:54.412Z,4.83
2018-07-17T07:09:23.292Z,5.50
2018-07-17T07:11:52.132Z,7.50
2018-07-17T07:14:21.121Z,5.87
2018-07-17T07:16:50.020Z,5.20
2018-07-17T07:19:18.932Z,4.37
2018-07-17T07:21:47.805Z,5.67
2018-07-17T07:24:16.355Z,4.83
2018-07-17T07:26:45.172Z,7.87
2018-07-17T07:29:13.722Z,4.50
2018-07-17T07:31:42.624Z,4.00
2018-07-17T07:34:11.522Z,3.50
2018-07-17T07:36:40.436Z,5.60
2018-07-17T07:39:09.956Z,3.63
2018-07-17T07:41:38.860Z,3.13
2018-07-17T07:44:07.821Z,6.20
2018-07-17T07:46:36.708Z,3.30
2018-07-17T07:49:05.678Z,3.23
2018-07-17T07:51:34.508Z,3.20
2018-07-17T07:54:03.404Z,4.03
2018-07-17T07:56:32.281Z,3.37
2018-07-17T07:59:00.764Z,3.93
2018-07-17T08:01:29.701Z,3.17
2018-07-17T08:03:58.780Z,3.30
2018-07-17T08:06:27.689Z,3.70
2018-07-17T08:08:56.570Z,3.97
2018-07-17T08:11:25.468Z,3.03
2018-07-17T08:13:54.917Z,4.20
2018-07-17T08:16:23.454Z,3.33
2018-07-17T08:18:52.742Z,2.83
2018-07-17T08:21:21.600Z,4.13
2018-07-17T08:23:50.063Z,3.43
2018-07-17T08:26:18.938Z,3.20
2018-07-17T08:28:47.876Z,3.10
2018-07-17T08:31:16.753Z,4.33
2018-07-17T08:33:45.681Z,3.50
2018-07-17T08:36:14.539Z,3.23
2018-07-17T08:38:43.433Z,3.17
2018-07-17T08:41:12.317Z,3.20
2018-07-17T08:43:41.231Z,4.90
2018-07-17T08:46:10.104Z,5.70
2018-07-17T08:48:39.007Z,3.97
2018-07-17T08:51:07.920Z,3.13
2018-07-17T08:56:11.197Z,3.60
2018-07-17T08:58:40.108Z,3.20
2018-07-17T09:01:09.469Z,2.90
2018-07-17T09:03:37.935Z,2.70
2018-07-17T09:06:06.917Z,4.43
2018-07-17T09:08:35.824Z,7.30
2018-07-17T09:11:04.708Z,2.90
2018-07-17T09:13:33.596Z,4.20
2018-07-17T09:16:02.737Z,3.03
2018-07-17T09:18:31.635Z,3.77
2018-07-17T09:21:00.516Z,2.70
2018-07-17T09:23:29.440Z,3.15
2018-07-17T09:25:58.453Z,3.15
2018-07-17T09:28:27.452Z,2.95
2018-07-17T09:31:00.260Z,3.10
2018-07-17T09:33:29.624Z,3.02
2018-07-17T09:35:58.712Z,3.20
2018-07-17T09:38:27.625Z,3.17
2018-07-17T09:40:56.584Z,3.70
2018-07-17T09:43:25.485Z,2.87
2018-07-17T09:45:54.369Z,4.42
2018-07-17T09:48:23.268Z,3.17
2018-07-17T09:50:52.160Z,4.33
2018-07-17T09:53:21.825Z,3.77
2018-07-17T09:55:50.728Z,3.02
2018-07-17T09:58:19.624Z,3.67
2018-07-17T10:00:53.565Z,3.40
2018-07-17T10:03:22.451Z,3.08
2018-07-17T10:05:50.900Z,2.65
2018-07-17T10:08:19.896Z,3.00
2018-07-17T10:10:48.764Z,4.40
2018-07-17T10:13:17.779Z,3.58
2018-07-17T10:15:46.713Z,3.85
2018-07-17T10:18:15.628Z,2.70
2018-07-17T10:20:44.503Z,2.83
2018-07-17T10:23:13.623Z,2.90
2018-07-17T10:25:42.097Z,2.67
2018-07-17T10:28:10.600Z,2.83
2018-07-17T10:30:39.515Z,5.20
2018-07-17T10:33:09.136Z,5.03
2018-07-17T10:35:38.032Z,2.80
2018-07-17T10:38:06.980Z,3.40
2018-07-17T10:40:35.911Z,3.67
2018-07-17T10:43:04.875Z,2.90
2018-07-17T10:45:34.049Z,5.37
2018-07-17T10:48:03.056Z,2.70
2018-07-17T10:50:31.980Z,3.10
2018-07-17T10:53:00.892Z,4.03
2018-07-17T10:55:29.831Z,2.93
2018-07-17T10:57:58.700Z,3.80
2018-07-17T11:00:27.641Z,3.20
2018-07-17T11:02:56.489Z,2.97
2018-07-17T11:05:25.424Z,2.83
2018-07-17T11:07:54.329Z,2.90
2018-07-17T11:10:23.244Z,3.40
2018-07-17T11:12:52.439Z,2.97
2018-07-17T11:15:21.363Z,3.33
2018-07-17T11:17:50.245Z,3.30
2018-07-17T11:20:19.142Z,3.93
2018-07-17T11:22:48.096Z,3.40
2018-07-17T11:25:17.125Z,3.50
2018-07-17T11:27:46.120Z,3.33
2018-07-17T11:30:15.160Z,4.27
2018-07-17T11:32:44.112Z,3.23
2018-07-17T11:35:13.021Z,3.80
2018-07-17T11:37:41.963Z,4.20
2018-07-17T11:40:10.895Z,3.63
2018-07-17T11:42:39.865Z,5.00
2018-07-17T11:45:08.916Z,4.30
2018-07-17T11:47:37.849Z,4.67
2018-07-17T11:50:06.637Z,4.47
2018-07-17T11:52:35.278Z,4.47
2018-07-17T11:55:04.288Z,5.00
2018-07-17T11:57:33.272Z,4.67
2018-07-17T12:00:02.254Z,4.97
2018-07-17T12:02:31.264Z,4.40
2018-07-17T12:05:00.241Z,4.07
2018-07-17T12:07:29.219Z,4.37
2018-07-17T12:09:58.215Z,5.10
2018-07-17T12:12:27.169Z,4.10
2018-07-17T12:14:56.157Z,4.00
2018-07-17T12:17:42.299Z,4.13
2018-07-17T12:20:37.691Z,4.40
2018-07-17T12:23:32.647Z,4.43
2018-07-17T12:26:05.599Z,4.43
2018-07-17T12:28:34.601Z,4.93
2018-07-17T12:31:03.525Z,5.13
2018-07-17T12:33:34.505Z,4.10
2018-07-17T12:36:03.637Z,4.40
2018-07-17T12:38:32.810Z,4.60
2018-07-17T12:41:01.797Z,4.53
2018-07-17T12:43:31.594Z,4.97
2018-07-17T12:46:00.674Z,4.97
2018-07-17T12:48:29.646Z,4.28
2018-07-17T12:50:58.593Z,7.30
2018-07-17T12:53:27.495Z,4.92
2018-07-17T12:55:56.485Z,4.00
2018-07-17T12:58:25.428Z,5.05
2018-07-17T13:00:54.032Z,5.17
2018-07-17T13:03:23.449Z,4.53
2018-07-17T13:05:52.393Z,4.05
2018-07-17T13:08:21.318Z,4.72
2018-07-17T13:10:50.292Z,4.67
2018-07-17T13:13:18.952Z,3.77
2018-07-17T13:15:47.920Z,3.93
2018-07-17T13:18:16.998Z,5.43
2018-07-17T13:20:46.072Z,3.90
2018-07-17T13:23:14.939Z,4.55
2018-07-17T13:25:43.945Z,4.97
2018-07-17T13:28:13.921Z,3.58
2018-07-17T13:30:42.537Z,4.53
2018-07-17T13:33:11.048Z,3.27
2018-07-17T13:35:40.008Z,5.67
2018-07-17T13:38:08.557Z,3.35
2018-07-17T13:40:37.076Z,3.27
2018-07-17T13:43:06.108Z,2.92
2018-07-17T13:45:35.061Z,3.85
2018-07-17T13:48:03.543Z,4.20
2018-07-17T13:50:32.524Z,5.33
2018-07-17T13:53:01.467Z,3.67
2018-07-17T13:55:30.495Z,4.75
2018-07-17T13:57:59.472Z,4.62
2018-07-17T14:00:28.413Z,3.35
2018-07-17T14:02:56.913Z,4.35
2018-07-17T14:05:25.865Z,7.53
2018-07-17T14:07:56.433Z,5.90
2018-07-17T14:10:25.344Z,3.27
2018-07-17T14:12:54.390Z,2.90
2018-07-17T14:15:22.903Z,2.75
2018-07-17T14:17:51.944Z,3.10
2018-07-17T14:20:20.929Z,3.77
2018-07-17T14:22:50.128Z,2.80
2018-07-17T14:25:18.718Z,2.83
2018-07-17T14:27:47.688Z,4.67
2018-07-17T14:30:16.627Z,2.52
2018-07-17T14:32:45.968Z,3.17
2018-07-17T14:35:15.230Z,4.22
2018-07-17T14:37:43.788Z,3.10
2018-07-17T14:40:12.850Z,3.50
2018-07-17T14:42:41.819Z,3.90
2018-07-17T14:45:10.737Z,3.90
2018-07-17T14:47:40.996Z,2.90
2018-07-17T14:50:11.274Z,2.83
2018-07-17T14:52:40.365Z,2.60
2018-07-17T14:55:10.711Z,2.90
2018-07-17T14:57:40.092Z,2.72
2018-07-17T15:00:10.196Z,2.33
2018-07-17T15:02:39.512Z,3.15
2018-07-17T15:05:09.757Z,2.33
2018-07-17T15:07:38.933Z,2.40
2018-07-17T15:10:08.574Z,5.35
2018-07-17T15:12:37.741Z,2.47
2018-07-17T15:15:08.011Z,3.65
2018-07-17T15:17:36.986Z,2.77
2018-07-17T15:20:06.024Z,2.85
2018-07-17T15:22:35.010Z,3.05
2018-07-17T15:25:04.109Z,2.47
2018-07-17T15:27:33.135Z,3.40
2018-07-17T15:30:02.265Z,2.52
2018-07-17T15:32:31.230Z,3.52
2018-07-17T15:35:00.143Z,3.42
2018-07-17T15:37:30.566Z,2.22
2018-07-17T15:40:00.374Z,2.60
2018-07-17T15:42:29.348Z,3.35
2018-07-17T15:44:58.265Z,2.80
2018-07-17T15:47:27.264Z,3.52
2018-07-17T15:49:56.249Z,4.60
2018-07-17T15:52:25.474Z,2.60
2018-07-17T15:54:54.477Z,2.67
2018-07-17T15:57:23.456Z,4.05
2018-07-17T15:59:52.615Z,2.55
2018-07-17T16:02:21.564Z,2.50
2018-07-17T16:04:50.593Z,2.77
2018-07-17T16:07:19.542Z,2.70
2018-07-17T16:09:48.555Z,3.80
2018-07-17T16:12:18.614Z,2.55
2018-07-17T16:14:47.673Z,2.50
2018-07-17T16:17:16.673Z,2.77
2018-07-17T16:19:45.630Z,3.00
2018-07-17T16:22:14.169Z,5.97
2018-07-17T16:24:43.197Z,6.70
2018-07-17T16:27:12.161Z,2.70
2018-07-17T16:29:41.188Z,2.72
2018-07-17T16:32:10.238Z,2.52
2018-07-17T16:34:39.298Z,2.75
2018-07-17T16:37:08.725Z,3.80
2018-07-17T16:39:37.684Z,2.65
2018-07-17T16:42:07.147Z,3.55
2018-07-17T16:44:36.093Z,2.80
2018-07-17T16:47:05.073Z,4.40
2018-07-17T16:49:34.182Z,3.00
2018-07-17T16:52:03.104Z,2.90
2018-07-17T16:54:32.089Z,2.77
2018-07-17T16:57:01.042Z,3.77
2018-07-17T16:59:29.588Z,3.17
2018-07-17T17:01:58.553Z,3.45
2018-07-17T17:04:27.505Z,2.90
2018-07-17T17:06:56.053Z,3.20
2018-07-17T17:09:25.024Z,3.10
2018-07-17T17:11:54.005Z,2.80
2018-07-17T17:14:22.985Z,2.60
2018-07-17T17:16:51.973Z,3.85
2018-07-17T17:19:20.998Z,3.83
2018-07-17T17:21:49.945Z,3.58
2018-07-17T17:24:18.614Z,3.33
2018-07-17T17:26:49.409Z,2.67
2018-07-17T17:29:18.455Z,3.52
2018-07-17T17:31:47.422Z,3.87
2018-07-17T17:34:16.400Z,3.65
2018-07-17T17:36:45.537Z,4.28
2018-07-17T17:39:14.436Z,4.85
2018-07-17T17:41:42.961Z,3.25
2018-07-17T17:44:11.941Z,3.15
2018-07-17T17:46:40.580Z,3.25
2018-07-17T17:49:09.478Z,3.00
2018-07-17T17:51:38.536Z,2.72
2018-07-17T17:54:08.345Z,3.75
2018-07-17T17:56:37.401Z,4.10
2018-07-17T17:59:07.090Z,3.42
2018-07-17T18:01:35.701Z,4.00
2018-07-17T18:04:04.759Z,3.55
2018-07-17T18:06:33.823Z,4.47
2018-07-17T18:09:03.175Z,4.60
2018-07-17T18:11:32.182Z,3.40
2018-07-17T18:14:01.291Z,4.03
2018-07-17T18:16:30.289Z,4.92
2018-07-17T18:18:59.269Z,3.50
2018-07-17T18:21:28.261Z,4.30
2018-07-17T18:23:58.246Z,4.15
2018-07-17T18:26:28.907Z,5.80
2018-07-17T18:28:57.837Z,5.22
2018-07-17T18:31:26.793Z,3.70
2018-07-17T18:33:55.779Z,5.65
2018-07-17T18:36:24.698Z,4.80
2018-07-17T18:38:53.677Z,4.30
2018-07-17T18:41:22.617Z,4.10
2018-07-17T18:43:51.620Z,4.67
2018-07-17T18:46:20.653Z,3.77
2018-07-17T18:48:50.236Z,3.62
2018-07-17T18:51:35.038Z,5.40
2018-07-17T18:54:04.153Z,4.58
2018-07-17T18:56:33.918Z,5.53
2018-07-17T18:59:04.877Z,5.22
2018-07-17T19:01:33.802Z,4.42
2018-07-17T19:04:02.805Z,3.98
2018-07-17T19:06:31.785Z,4.97
2018-07-17T19:09:00.773Z,6.93
2018-07-17T19:11:29.710Z,7.30
2018-07-17T19:13:58.698Z,5.87
2018-07-17T19:16:27.673Z,5.57
2018-07-17T19:18:56.701Z,4.47
2018-07-17T19:21:25.670Z,5.20
2018-07-17T19:23:54.749Z,6.53
2018-07-17T19:26:23.727Z,8.23
2018-07-17T19:28:52.865Z,5.40
2018-07-17T19:31:22.352Z,4.70
2018-07-17T19:33:51.419Z,6.83
2018-07-17T19:36:20.501Z,6.87
2018-07-17T19:38:49.521Z,5.43
2018-07-17T19:41:18.501Z,5.63
2018-07-17T19:43:47.806Z,8.87
2018-07-17T19:46:19.324Z,5.17
2018-07-17T19:48:48.368Z,6.23
2018-07-17T19:51:18.987Z,6.87
2018-07-17T19:53:47.963Z,8.47
2018-07-17T19:56:16.929Z,6.90
2018-07-17T19:58:45.947Z,7.10
2018-07-17T20:01:15.028Z,6.43
2018-07-17T20:03:44.577Z,9.33
2018-07-17T20:06:13.593Z,4.93
2018-07-17T20:08:42.345Z,5.43
2018-07-17T20:11:10.889Z,5.30
2018-07-17T20:13:40.354Z,7.13
2018-07-17T20:16:09.425Z,4.83
2018-07-17T20:18:38.787Z,6.07
2018-07-17T20:21:08.236Z,5.33
2018-07-17T20:23:37.169Z,5.63
2018-07-17T20:26:06.140Z,4.97
2018-07-17T20:28:35.171Z,5.20
2018-07-17T20:31:04.127Z,8.50
2018-07-17T20:33:33.090Z,5.83
2018-07-17T20:36:02.951Z,4.73
2018-07-17T20:38:32.516Z,5.73
2018-07-17T20:41:02.174Z,7.37
2018-07-17T20:43:33.316Z,5.10
2018-07-17T20:46:10.543Z,5.40
2018-07-17T20:48:39.287Z,5.27
2018-07-17T20:51:08.220Z,7.87
2018-07-17T20:53:37.145Z,7.40
2018-07-17T20:56:06.677Z,4.90
2018-07-17T20:58:36.960Z,7.23
2018-07-17T21:01:07.308Z,4.93
2018-07-17T21:03:35.899Z,5.77
2018-07-17T21:06:05.172Z,4.73
2018-07-17T21:08:34.154Z,4.70
2018-07-17T21:11:03.167Z,4.40
2018-07-17T21:13:32.741Z,5.87
2018-07-17T21:16:01.711Z,6.70
2018-07-17T21:18:30.664Z,4.37
2018-07-17T21:20:59.609Z,4.77
2018-07-17T21:23:28.543Z,4.67
2018-07-17T21:25:57.460Z,6.23
2018-07-17T21:28:26.387Z,6.90
2018-07-17T21:30:55.300Z,4.97
2018-07-17T21:33:24.196Z,4.87
2018-07-17T21:35:53.109Z,5.57
2018-07-17T21:38:21.630Z,4.40
2018-07-17T21:40:50.552Z,5.10
2018-07-17T21:43:19.476Z,4.47
2018-07-17T21:45:47.927Z,5.37
2018-07-17T21:48:16.784Z,6.30
2018-07-17T21:50:45.697Z,5.93
2018-07-17T21:53:14.604Z,6.13
2018-07-17T21:55:43.455Z,6.07
2018-07-17T21:58:12.363Z,7.20
2018-07-17T22:00:41.265Z,6.00
2018-07-17T22:03:10.152Z,5.73
2018-07-17T22:05:39.057Z,8.83
2018-07-17T22:08:08.036Z,7.73
2018-07-17T22:10:36.954Z,7.37
2018-07-17T22:13:06.029Z,6.57
2018-07-17T22:15:34.929Z,4.53
2018-07-17T22:18:03.873Z,7.27
2018-07-17T22:20:32.857Z,5.27
2018-07-17T22:23:01.800Z,4.90
2018-07-17T22:25:30.717Z,5.90
2018-07-17T22:27:59.687Z,5.97
2018-07-17T22:30:28.584Z,6.80
2018-07-17T22:32:57.536Z,5.23
2018-07-17T22:35:27.468Z,6.00
2018-07-17T22:37:56.371Z,5.53
2018-07-17T22:40:25.292Z,6.03
2018-07-17T22:42:53.748Z,6.27
2018-07-17T22:45:22.660Z,6.53
2018-07-17T22:47:51.568Z,5.97
2018-07-17T22:50:21.812Z,6.33
2018-07-17T22:52:50.721Z,4.10
2018-07-17T22:55:19.613Z,5.67
2018-07-17T22:57:48.529Z,4.87
2018-07-17T23:00:17.435Z,6.37
2018-07-17T23:02:46.313Z,8.33
2018-07-17T23:05:15.236Z,5.10
2018-07-17T23:07:44.104Z,6.03
2018-07-17T23:10:13.020Z,6.67
2018-07-17T23:12:41.894Z,7.13
2018-07-17T23:15:10.386Z,4.73
2018-07-17T23:17:38.832Z,9.57
2018-07-17T23:20:07.824Z,7.13
2018-07-17T23:22:50.684Z,8.27
2018-07-17T23:25:19.976Z,6.53
2018-07-17T23:27:48.473Z,5.60
2018-07-17T23:30:17.656Z,6.60
2018-07-17T23:32:46.331Z,5.23
2018-07-17T23:35:15.292Z,5.27
2018-07-17T23:37:45.057Z,8.50
2018-07-17T23:40:14.343Z,10.63
2018-07-17T23:42:43.206Z,5.87
2018-07-17T23:45:12.532Z,5.20
2018-07-17T23:47:41.035Z,4.67
2018-07-17T23:50:09.979Z,5.27
2018-07-17T23:52:38.844Z,5.30
2018-07-17T23:55:07.860Z,4.60
2018-07-17T23:57:36.737Z,7.60
